Time;durP1;ratioP1;P1;durP2;ratioP2;P2;SDS_P1;SDS_P2;PMS_P1;PMS_P2;Temp;Humidity;BMP_temperature;BMP_pressure;BME280_temperature;BME280_humidity;BME280_pressure;Samples;Min_cycle;Max_cycle;Signal;HPM_P1;HPM_P2
2023/01/06 00:00:21;;;;;;;2.20;1.20;;;8.80;98.00;;;;;;5021719;28;20426;-65
2023/01/06 00:02:47;;;;;;;2.20;1.02;;;8.70;98.00;;;;;;5029822;28;20069;-65
2023/01/06 00:05:13;;;;;;;3.10;1.17;;;8.60;98.00;;;;;;5030465;28;20065;-67
2023/01/06 00:07:43;;;;;;;2.10;1.00;;;8.60;98.00;;;;;;5027020;28;20033;-66
2023/01/06 00:10:09;;;;;;;3.63;1.08;;;8.50;98.00;;;;;;5018110;28;20501;-66
2023/01/06 00:12:35;;;;;;;3.33;1.70;;;8.50;98.00;;;;;;5027616;28;20061;-66
2023/01/06 00:15:01;;;;;;;2.22;1.00;;;8.40;98.00;;;;;;5030408;28;20080;-66
2023/01/06 00:17:26;;;;;;;1.70;1.05;;;8.40;98.00;;;;;;5030249;28;20037;-65
2023/01/06 00:19:52;;;;;;;2.30;1.00;;;8.50;98.00;;;;;;5032564;28;20022;-65
2023/01/06 00:22:17;;;;;;;2.63;1.10;;;8.50;98.00;;;;;;5029536;28;20026;-65
2023/01/06 00:24:43;;;;;;;1.70;0.90;;;8.40;98.00;;;;;;5032056;28;20120;-64
2023/01/06 00:27:09;;;;;;;1.65;0.82;;;8.50;98.00;;;;;;5034081;28;20045;-65
2023/01/06 00:29:34;;;;;;;2.10;0.93;;;8.60;98.00;;;;;;5029129;28;20442;-66
2023/01/06 00:32:01;;;;;;;3.10;1.00;;;8.60;98.00;;;;;;5027289;28;20049;-66
2023/01/06 00:34:27;;;;;;;2.47;1.00;;;8.60;98.00;;;;;;5032097;28;20040;-66
2023/01/06 00:36:53;;;;;;;2.45;1.20;;;8.60;98.00;;;;;;5035500;28;20639;-66
2023/01/06 00:39:19;;;;;;;1.65;0.80;;;8.50;98.00;;;;;;5037575;28;20044;-66
2023/01/06 00:42:02;;;;;;;1.63;0.70;;;8.60;98.00;;;;;;5039751;28;20040;-66
2023/01/06 00:44:29;;;;;;;2.57;1.10;;;9.10;98.00;;;;;;5038860;28;20026;-66
2023/01/06 00:46:55;;;;;;;1.75;0.90;;;9.30;98.00;;;;;;5039563;28;20323;-65
2023/01/06 00:49:21;;;;;;;2.22;1.00;;;9.30;98.00;;;;;;5036341;28;20021;-67
2023/01/06 00:51:47;;;;;;;1.10;0.77;;;9.30;98.00;;;;;;5032761;28;20029;-67
2023/01/06 00:54:13;;;;;;;0.80;0.70;;;9.40;98.00;;;;;;5038492;28;20445;-67
2023/01/06 00:56:41;;;;;;;1.92;0.80;;;9.50;98.00;;;;;;5043032;28;20122;-66
2023/01/06 00:59:08;;;;;;;2.40;0.90;;;9.50;98.00;;;;;;5037359;28;20071;-66
2023/01/06 01:01:34;;;;;;;1.70;0.90;;;9.40;98.00;;;;;;5048128;28;20025;-67
2023/01/06 01:04:00;;;;;;;1.75;0.82;;;9.40;98.00;;;;;;5037869;28;20021;-67
2023/01/06 01:06:26;;;;;;;2.10;0.90;;;9.40;98.00;;;;;;5035922;28;20457;-66
2023/01/06 01:08:56;;;;;;;1.58;0.80;;;9.40;98.00;;;;;;5034970;28;20034;-66
2023/01/06 01:14:07;;;;;;;0.85;0.70;;;9.60;98.00;;;;;;5038291;28;20075;-66
2023/01/06 01:16:32;;;;;;;1.65;0.80;;;9.70;98.00;;;;;;5036097;28;20388;-66
2023/01/06 01:18:58;;;;;;;1.73;0.70;;;9.70;98.00;;;;;;5034726;28;20030;-66
2023/01/06 01:21:24;;;;;;;0.68;0.60;;;9.70;98.00;;;;;;5032835;28;20151;-66
2023/01/06 01:23:50;;;;;;;1.42;0.70;;;9.70;98.00;;;;;;5034419;28;20033;-66
2023/01/06 01:26:16;;;;;;;1.13;0.70;;;9.70;98.00;;;;;;5036740;28;20053;-66
2023/01/06 01:28:42;;;;;;;0.98;0.70;;;9.70;98.00;;;;;;5033091;28;20041;-66
2023/01/06 01:31:07;;;;;;;1.35;0.75;;;9.80;98.00;;;;;;5030501;28;20068;-67
2023/01/06 01:33:33;;;;;;;0.93;0.70;;;9.80;98.00;;;;;;5031329;28;20419;-66
2023/01/06 01:36:05;;;;;;;2.55;1.00;;;9.80;98.00;;;;;;5032207;28;20032;-66
2023/01/06 01:38:30;;;;;;;1.23;0.80;;;9.80;98.00;;;;;;5033083;28;20033;-66
2023/01/06 01:40:56;;;;;;;2.03;0.70;;;9.70;98.00;;;;;;5036009;28;20084;-66
2023/01/06 01:43:21;;;;;;;1.65;0.90;;;9.70;98.00;;;;;;5034884;28;20030;-66
2023/01/06 01:45:50;;;;;;;1.23;0.80;;;9.70;98.00;;;;;;5036225;28;20112;-66
2023/01/06 01:48:32;;;;;;;1.55;0.82;;;9.50;98.00;;;;;;5031619;28;20033;-66
2023/01/06 01:51:04;;;;;;;2.35;0.80;;;9.40;98.00;;;;;;5033558;28;20029;-67
2023/01/06 01:53:37;;;;;;;2.67;0.90;;;9.30;98.00;;;;;;5035323;28;20136;-67
2023/01/06 01:56:06;;;;;;;1.13;0.80;;;9.40;98.00;;;;;;5032639;28;20080;-66
2023/01/06 01:58:37;;;;;;;0.90;0.70;;;9.50;98.00;;;;;;5034672;28;20025;-67
2023/01/06 02:01:07;;;;;;;1.83;0.80;;;9.40;98.00;;;;;;5033429;28;20030;-67
2023/01/06 02:03:33;;;;;;;2.85;0.90;;;9.30;98.00;;;;;;5035636;28;20057;-67
2023/01/06 02:06:01;;;;;;;2.53;0.90;;;9.20;98.00;;;;;;5032602;28;20060;-67
2023/01/06 02:08:35;;;;;;;1.63;0.80;;;9.20;98.00;;;;;;5024096;28;20041;-67
2023/01/06 02:11:02;;;;;;;2.03;0.82;;;9.10;98.00;;;;;;5023474;28;20025;-67
2023/01/06 02:13:29;;;;;;;1.77;0.90;;;9.00;98.00;;;;;;5034859;28;20083;-65
2023/01/06 02:16:04;;;;;;;2.33;0.90;;;8.90;98.00;;;;;;5029879;28;20365;-66
2023/01/06 02:18:47;;;;;;;1.70;0.82;;;9.10;98.00;;;;;;5033905;28;20025;-66
2023/01/06 02:21:33;;;;;;;5.30;0.80;;;9.00;98.00;;;;;;5032360;28;20025;-66
2023/01/06 02:24:17;;;;;;;1.48;0.90;;;9.00;98.00;;;;;;5029638;28;20037;-66
2023/01/06 02:27:01;;;;;;;;;;;8.90;98.00;;;;;;5033490;28;20045;-66
2023/01/06 02:29:36;;;;;;;1.92;0.95;;;8.80;98.00;;;;;;5033007;28;19917;-65
2023/01/06 02:32:04;;;;;;;2.40;0.98;;;9.00;98.00;;;;;;5030705;28;20040;-66
2023/01/06 02:35:02;;;;;;;2.35;1.10;;;9.00;98.00;;;;;;5033433;28;20097;-66
2023/01/06 02:37:49;;;;;;;2.53;0.98;;;9.00;98.00;;;;;;4996416;28;20046;-66
2023/01/06 02:40:32;;;;;;;1.52;0.80;;;8.80;98.00;;;;;;5029449;28;20030;-68
2023/01/06 02:43:31;;;;;;;1.38;0.80;;;8.60;98.00;;;;;;5031836;28;20029;-67
2023/01/06 02:46:47;;;;;;;2.45;0.90;;;8.70;98.00;;;;;;5023359;28;20045;-67
2023/01/06 02:49:35;;;;;;;1.58;0.82;;;8.60;98.00;;;;;;5030995;28;20130;-67
2023/01/06 02:52:05;;;;;;;2.13;1.10;;;8.50;98.00;;;;;;5030172;28;20022;-67
2023/01/06 02:54:48;;;;;;;1.58;1.00;;;8.40;98.00;;;;;;5033901;28;20021;-68
2023/01/06 02:57:29;;;;;;;4.32;1.60;;;8.10;98.00;;;;;;5034005;28;20095;-68
2023/01/06 03:00:03;;;;;;;3.30;1.42;;;8.10;98.00;;;;;;5047136;28;20430;-67
2023/01/06 03:02:33;;;;;;;4.30;1.52;;;8.00;97.80;;;;;;5034546;28;20022;-68
2023/01/06 03:05:02;;;;;;;5.22;1.67;;;8.10;97.70;;;;;;5034746;28;20686;-66
2023/01/06 03:07:31;;;;;;;4.45;1.83;;;8.10;97.80;;;;;;5028847;28;20095;-66
2023/01/06 03:09:59;;;;;;;3.63;1.30;;;8.20;98.00;;;;;;5030652;28;20033;-64
2023/01/06 03:12:47;;;;;;;4.30;1.63;;;8.20;98.00;;;;;;5034587;28;20296;-65
2023/01/06 03:15:12;;;;;;;2.72;1.08;;;8.10;98.00;;;;;;5030199;28;20422;-65
2023/01/06 03:17:38;;;;;;;2.72;1.10;;;8.00;98.00;;;;;;5034703;28;20029;-66
2023/01/06 03:20:05;;;;;;;2.03;1.00;;;7.80;97.10;;;;;;5033291;28;20029;-66
2023/01/06 03:22:32;;;;;;;1.58;0.90;;;7.80;96.50;;;;;;5033590;28;20022;-65
2023/01/06 03:24:59;;;;;;;1.40;0.90;;;7.80;96.20;;;;;;5032698;28;20045;-65
2023/01/06 03:27:25;;;;;;;1.98;1.00;;;7.90;96.60;;;;;;5033538;28;20033;-66
2023/01/06 03:29:51;;;;;;;2.53;1.00;;;7.90;97.30;;;;;;5030545;28;20022;-65
2023/01/06 03:32:30;;;;;;;1.70;1.00;;;7.50;97.30;;;;;;5033625;28;20030;-65
2023/01/06 03:35:10;;;;;;;2.03;1.00;;;7.30;95.70;;;;;;5032775;28;20022;-66
2023/01/06 03:37:50;;;;;;;1.80;0.95;;;7.20;94.50;;;;;;5040307;28;20029;-66
2023/01/06 03:40:38;;;;;;;1.83;1.00;;;6.90;94.60;;;;;;5031436;28;20071;-66
2023/01/06 03:43:33;;;;;;;1.75;0.90;;;6.60;93.30;;;;;;5031588;28;20426;-66
2023/01/06 03:46:20;;;;;;;1.70;0.95;;;6.40;91.90;;;;;;5032831;28;20025;-66
2023/01/06 03:49:06;;;;;;;2.75;1.10;;;6.20;90.10;;;;;;5032994;28;20042;-66
2023/01/06 03:51:55;;;;;;;3.38;1.55;;;6.10;88.80;;;;;;5031316;28;20021;-66
2023/01/06 03:54:45;;;;;;;5.60;1.55;;;6.00;87.80;;;;;;5035994;28;20045;-65
2023/01/06 03:57:17;;;;;;;1.52;1.05;;;5.80;88.20;;;;;;5048233;28;20030;-65
2023/01/06 03:59:54;;;;;;;3.38;1.00;;;5.70;87.50;;;;;;5034227;28;20318;-66
2023/01/06 04:02:20;;;;;;;1.55;0.95;;;5.50;86.40;;;;;;5038398;28;20112;-66
2023/01/06 04:05:06;;;;;;;1.20;0.82;;;5.40;84.40;;;;;;5037716;28;20589;-66
2023/01/06 04:07:31;;;;;;;1.58;0.90;;;5.40;83.30;;;;;;5036432;28;20044;-66
2023/01/06 04:09:57;;;;;;;1.35;0.90;;;5.30;81.70;;;;;;5037062;28;20034;-66
2023/01/06 04:12:43;;;;;;;1.67;1.00;;;5.20;82.50;;;;;;5035532;28;20147;-66
2023/01/06 04:15:13;;;;;;;1.77;0.90;;;5.10;80.90;;;;;;5037727;28;20041;-66
2023/01/06 04:17:40;;;;;;;1.90;1.00;;;5.30;76.70;;;;;;5034115;28;20029;-66
2023/01/06 04:20:08;;;;;;;1.60;1.00;;;5.50;74.90;;;;;;5036952;28;20044;-66
2023/01/06 04:22:34;;;;;;;1.70;0.95;;;5.70;74.70;;;;;;5036074;28;20125;-67
2023/01/06 04:24:59;;;;;;;2.13;1.00;;;5.80;74.70;;;;;;5035147;28;20397;-66
2023/01/06 04:27:25;;;;;;;2.15;1.20;;;6.00;73.80;;;;;;5038085;28;20044;-67
2023/01/06 04:29:50;;;;;;;1.20;0.85;;;6.10;75.20;;;;;;5037965;28;20065;-66
2023/01/06 04:32:16;;;;;;;4.90;1.00;;;6.10;75.80;;;;;;5037492;28;20100;-66
2023/01/06 04:34:42;;;;;;;2.03;0.98;;;6.10;76.40;;;;;;5036068;28;20427;-67
2023/01/06 04:37:07;;;;;;;1.95;0.95;;;6.10;76.70;;;;;;5033822;28;20025;-67
2023/01/06 04:39:33;;;;;;;1.38;0.90;;;6.10;78.20;;;;;;5035142;28;20453;-67
2023/01/06 04:41:58;;;;;;;1.67;1.08;;;6.00;78.30;;;;;;5036459;28;20089;-67
2023/01/06 04:44:24;;;;;;;1.77;0.90;;;5.80;80.20;;;;;;5033741;28;20112;-66
2023/01/06 04:46:49;;;;;;;1.73;1.10;;;5.70;79.80;;;;;;5051310;28;20029;-67
2023/01/06 04:49:15;;;;;;;1.80;1.00;;;5.60;79.40;;;;;;5036166;28;20041;-66
2023/01/06 04:51:40;;;;;;;1.92;1.10;;;5.50;78.60;;;;;;5034952;28;20044;-66
2023/01/06 04:54:06;;;;;;;2.22;1.00;;;5.40;78.10;;;;;;5036286;28;20033;-66
2023/01/06 04:56:31;;;;;;;1.75;0.90;;;5.50;76.20;;;;;;5028802;28;20049;-66
2023/01/06 04:58:58;;;;;;;2.40;1.08;;;5.60;75.40;;;;;;5034949;28;20084;-67
2023/01/06 05:01:25;;;;;;;1.77;1.02;;;5.60;75.40;;;;;;5037967;28;20045;-66
2023/01/06 05:03:52;;;;;;;1.63;1.00;;;5.50;76.30;;;;;;5030231;28;20103;-66
2023/01/06 05:06:18;;;;;;;1.95;1.00;;;5.30;77.60;;;;;;5034623;28;20029;-66
2023/01/06 05:08:45;;;;;;;2.25;1.00;;;5.30;75.20;;;;;;5034244;28;20029;-67
2023/01/06 05:11:15;;;;;;;2.15;1.02;;;5.30;75.70;;;;;;5046060;28;20041;-67
2023/01/06 05:13:41;;;;;;;2.75;0.98;;;5.30;76.10;;;;;;5034680;28;20111;-66
2023/01/06 05:16:18;;;;;;;2.53;0.90;;;5.20;75.70;;;;;;5035766;28;20056;-66
2023/01/06 05:18:44;;;;;;;6.30;2.47;;;5.30;73.50;;;;;;5035849;28;20426;-66
2023/01/06 05:21:10;;;;;;;2.45;1.00;;;5.40;73.10;;;;;;5035228;28;20033;-66
2023/01/06 05:23:37;;;;;;;1.40;0.80;;;5.40;73.10;;;;;;5034683;28;20033;-66
2023/01/06 05:26:03;;;;;;;1.42;0.90;;;5.60;72.10;;;;;;5033286;28;21274;-65
2023/01/06 05:28:29;;;;;;;1.40;0.90;;;5.70;72.60;;;;;;5034278;28;20022;-66
2023/01/06 05:31:02;;;;;;;2.05;1.05;;;5.90;70.80;;;;;;5036231;28;20038;-65
2023/01/06 05:33:28;;;;;;;1.58;0.80;;;6.00;72.60;;;;;;5033529;28;20364;-66
2023/01/06 05:36:05;;;;;;;1.30;0.80;;;6.00;73.30;;;;;;5033441;28;20033;-66
2023/01/06 05:38:31;;;;;;;1.63;1.00;;;5.80;75.80;;;;;;5034914;28;20032;-66
2023/01/06 05:40:57;;;;;;;3.03;1.10;;;6.10;70.80;;;;;;5033648;28;20041;-67
2023/01/06 05:43:24;;;;;;;1.02;0.80;;;6.40;73.50;;;;;;5035705;28;20033;-66
2023/01/06 05:45:50;;;;;;;4.78;2.53;;;6.50;72.70;;;;;;5032780;28;20036;-66
2023/01/06 05:48:15;;;;;;;1.45;0.90;;;6.80;72.00;;;;;;5034598;28;20104;-66
2023/01/06 05:50:41;;;;;;;2.03;1.10;;;7.00;74.90;;;;;;5034958;28;20072;-66
2023/01/06 05:53:07;;;;;;;1.48;0.90;;;7.20;76.40;;;;;;5035483;28;20421;-67
2023/01/06 05:55:32;;;;;;;1.38;0.70;;;7.30;81.50;;;;;;5033923;28;20034;-66
2023/01/06 05:57:58;;;;;;;2.25;0.98;;;7.20;85.40;;;;;;5032964;28;20072;-67
2023/01/06 06:00:24;;;;;;;1.20;0.80;;;7.20;87.10;;;;;;5035979;28;20033;-66
2023/01/06 06:02:49;;;;;;;0.80;0.70;;;7.20;88.20;;;;;;5034278;28;20021;-66
2023/01/06 06:05:15;;;;;;;1.23;0.80;;;7.10;88.40;;;;;;5031934;28;20044;-66
2023/01/06 06:07:40;;;;;;;1.80;0.80;;;7.00;88.10;;;;;;5033387;28;20025;-65
2023/01/06 06:10:08;;;;;;;1.60;0.80;;;7.10;88.20;;;;;;5031689;28;20033;-66
2023/01/06 06:12:34;;;;;;;2.65;1.13;;;7.10;89.30;;;;;;5030484;28;20105;-66
2023/01/06 06:14:59;;;;;;;1.63;0.90;;;7.10;89.00;;;;;;5033920;28;20026;-65
2023/01/06 06:17:25;;;;;;;1.23;0.80;;;7.10;89.60;;;;;;5035083;28;20041;-66
2023/01/06 06:19:51;;;;;;;1.10;0.80;;;7.00;90.00;;;;;;5035670;28;20075;-66
2023/01/06 06:22:16;;;;;;;1.45;0.77;;;7.20;90.00;;;;;;5032325;28;20414;-64
2023/01/06 06:24:42;;;;;;;1.40;0.80;;;7.30;91.20;;;;;;5035160;28;20390;-66
2023/01/06 06:27:07;;;;;;;2.33;0.90;;;7.30;92.00;;;;;;5031856;28;20040;-66
2023/01/06 06:29:33;;;;;;;2.08;0.80;;;7.20;93.40;;;;;;5031979;28;20043;-66
2023/01/06 06:32:01;;;;;;;0.85;0.75;;;7.10;92.30;;;;;;5032434;28;20334;-66
2023/01/06 06:34:27;;;;;;;2.67;1.27;;;7.10;91.20;;;;;;5034739;28;20036;-66
2023/01/06 06:36:53;;;;;;;1.15;0.80;;;7.30;91.30;;;;;;5033065;28;20330;-66
2023/01/06 06:39:18;;;;;;;2.63;0.82;;;7.30;91.00;;;;;;5032349;28;20112;-66
2023/01/06 06:41:44;;;;;;;2.83;0.80;;;7.50;91.40;;;;;;5035075;28;20025;-66
2023/01/06 06:44:09;;;;;;;1.00;0.70;;;7.50;93.10;;;;;;5031983;28;20030;-66
2023/01/06 06:46:35;;;;;;;1.00;0.80;;;7.60;94.40;;;;;;5034277;28;20029;-64
2023/01/06 06:49:01;;;;;;;1.25;0.80;;;7.50;95.10;;;;;;5033642;28;20035;-66
2023/01/06 06:51:29;;;;;;;1.77;0.82;;;7.40;93.60;;;;;;5036813;28;20036;-66
2023/01/06 06:53:54;;;;;;;1.23;0.80;;;7.20;94.70;;;;;;5035162;28;20362;-66
2023/01/06 06:56:20;;;;;;;1.15;0.80;;;7.20;91.70;;;;;;5033714;28;20025;-67
2023/01/06 06:58:46;;;;;;;0.90;0.75;;;7.20;92.20;;;;;;5032615;28;20972;-67
2023/01/06 07:01:14;;;;;;;1.73;1.00;;;7.10;93.20;;;;;;5038681;28;20033;-67
2023/01/06 07:03:40;;;;;;;2.10;1.10;;;7.00;92.90;;;;;;5035464;28;20022;-67
2023/01/06 07:06:07;;;;;;;4.07;1.50;;;7.00;92.00;;;;;;5032873;28;20381;-67
2023/01/06 07:08:34;;;;;;;3.17;1.77;;;6.80;93.30;;;;;;5033760;28;20029;-66
2023/01/06 07:11:00;;;;;;;2.67;1.48;;;6.70;91.40;;;;;;5032415;28;20048;-66
2023/01/06 07:13:26;;;;;;;4.35;1.50;;;6.60;93.20;;;;;;5030171;28;20029;-67
2023/01/06 07:15:52;;;;;;;4.03;2.15;;;6.30;93.60;;;;;;5033121;28;20017;-66
2023/01/06 07:18:17;;;;;;;3.97;2.50;;;6.00;91.90;;;;;;5037993;28;20411;-66
2023/01/06 07:20:48;;;;;;;5.93;3.85;;;5.80;90.80;;;;;;5031888;28;20472;-66
2023/01/06 07:23:14;;;;;;;6.57;4.30;;;5.70;88.70;;;;;;5033320;28;20132;-66
2023/01/06 07:25:40;;;;;;;8.35;5.97;;;5.50;88.30;;;;;;5034369;28;20125;-67
2023/01/06 07:28:06;;;;;;;7.88;4.88;;;5.40;89.00;;;;;;5030211;28;20121;-66
2023/01/06 07:30:33;;;;;;;4.22;2.33;;;5.50;85.70;;;;;;5031563;28;20098;-66
2023/01/06 07:32:58;;;;;;;4.30;2.15;;;5.20;89.40;;;;;;5034713;28;20033;-66
2023/01/06 07:35:24;;;;;;;10.73;6.05;;;4.80;90.00;;;;;;5031983;28;20167;-66
2023/01/06 07:37:50;;;;;;;11.73;6.78;;;4.70;88.40;;;;;;5028241;28;20025;-67
2023/01/06 07:40:16;;;;;;;9.63;4.88;;;4.50;86.50;;;;;;5033591;28;20033;-67
2023/01/06 07:42:42;;;;;;;8.18;4.53;;;4.60;83.90;;;;;;5032811;28;20034;-67
2023/01/06 07:45:08;;;;;;;7.88;4.03;;;4.70;82.60;;;;;;5033158;28;20033;-67
2023/01/06 07:47:34;;;;;;;12.13;5.30;;;4.60;83.20;;;;;;5034295;28;20040;-66
2023/01/06 07:50:01;;;;;;;11.77;6.25;;;4.60;83.00;;;;;;5030734;28;20292;-66
2023/01/06 07:52:26;;;;;;;15.70;7.95;;;4.60;81.30;;;;;;5031434;28;20383;-65
2023/01/06 07:54:52;;;;;;;16.17;9.25;;;4.60;81.40;;;;;;5033563;28;20056;-66
2023/01/06 07:57:17;;;;;;;9.90;6.25;;;4.60;80.60;;;;;;5032240;28;20030;-65
2023/01/06 07:59:43;;;;;;;7.22;4.20;;;4.60;80.70;;;;;;5035143;28;20418;-66
2023/01/06 08:02:10;;;;;;;4.93;2.80;;;4.60;79.10;;;;;;5030311;28;20449;-66
2023/01/06 08:04:36;;;;;;;9.23;5.90;;;4.80;77.00;;;;;;5034354;28;20034;-66
2023/01/06 08:07:04;;;;;;;8.35;6.13;;;5.00;76.80;;;;;;5033169;28;20037;-66
2023/01/06 08:09:30;;;;;;;6.05;3.60;;;5.10;75.70;;;;;;5033297;28;20025;-67
2023/01/06 08:11:56;;;;;;;5.18;3.35;;;5.20;77.30;;;;;;5031341;28;20469;-67
2023/01/06 08:14:22;;;;;;;6.68;4.22;;;5.10;82.70;;;;;;5028840;28;20079;-65
2023/01/06 08:16:47;;;;;;;6.88;4.85;;;5.10;80.50;;;;;;5032722;28;20105;-65
2023/01/06 08:19:13;;;;;;;6.10;3.80;;;5.40;80.50;;;;;;5029443;28;20112;-65
2023/01/06 08:21:38;;;;;;;4.75;2.90;;;5.70;79.70;;;;;;5034624;28;20037;-65
2023/01/06 08:24:04;;;;;;;3.60;1.85;;;6.10;83.10;;;;;;5033931;28;20061;-66
2023/01/06 08:26:30;;;;;;;9.68;4.18;;;6.50;84.10;;;;;;5031920;28;20159;-65
2023/01/06 08:28:55;;;;;;;9.10;5.15;;;6.80;92.70;;;;;;5034780;28;20319;-66
2023/01/06 08:31:22;;;;;;;10.07;5.53;;;7.10;94.70;;;;;;5030031;28;20101;-67
2023/01/06 08:33:49;;;;;;;10.48;7.20;;;7.40;97.00;;;;;;5024192;28;20087;-67
2023/01/06 08:36:17;;;;;;;7.13;4.72;;;7.40;98.00;;;;;;5042857;28;20056;-67
2023/01/06 08:38:42;;;;;;;6.53;4.03;;;7.50;98.00;;;;;;5032104;28;20025;-67
2023/01/06 08:41:08;;;;;;;8.38;4.60;;;7.50;98.00;;;;;;5035632;28;20312;-67
2023/01/06 08:43:35;;;;;;;6.03;3.47;;;7.30;98.00;;;;;;5038444;28;20040;-67
2023/01/06 08:46:06;;;;;;;5.00;2.90;;;7.00;98.00;;;;;;5037570;28;20060;-67
2023/01/06 08:48:33;;;;;;;3.85;2.03;;;6.90;97.70;;;;;;5034920;28;20082;-67
2023/01/06 08:51:07;;;;;;;3.83;1.80;;;6.90;96.80;;;;;;5032237;28;20033;-67
2023/01/06 08:53:33;;;;;;;4.22;1.70;;;6.90;96.00;;;;;;5035609;28;20323;-66
2023/01/06 08:55:59;;;;;;;3.25;1.63;;;7.10;96.60;;;;;;5029782;28;20028;-66
2023/01/06 08:58:25;;;;;;;4.88;2.25;;;7.20;97.20;;;;;;5025094;28;20112;-67
2023/01/06 09:00:51;;;;;;;3.28;1.40;;;7.30;96.90;;;;;;5026663;28;20326;-67
2023/01/06 09:03:17;;;;;;;3.30;1.63;;;7.40;97.30;;;;;;5034698;28;20034;-67
2023/01/06 09:05:43;;;;;;;3.33;1.80;;;7.50;97.80;;;;;;5035947;28;20330;-66
2023/01/06 09:08:09;;;;;;;4.38;2.40;;;7.60;98.00;;;;;;5030789;28;20034;-67
2023/01/06 09:10:37;;;;;;;5.38;2.80;;;7.80;97.80;;;;;;5038608;28;20036;-67
2023/01/06 09:13:03;;;;;;;3.50;1.70;;;7.70;97.10;;;;;;5037192;28;20318;-67
2023/01/06 09:15:29;;;;;;;3.45;1.80;;;7.80;96.60;;;;;;5037920;28;20021;-67
2023/01/06 09:17:55;;;;;;;3.60;1.90;;;7.70;93.60;;;;;;5036029;28;20025;-66
2023/01/06 09:20:20;;;;;;;6.80;2.90;;;7.60;92.60;;;;;;5032598;28;20125;-65
2023/01/06 09:22:46;;;;;;;4.60;2.45;;;7.60;90.50;;;;;;5027005;28;20379;-66
2023/01/06 09:25:12;;;;;;;6.97;3.70;;;7.50;88.70;;;;;;5036379;28;20049;-66
2023/01/06 09:27:37;;;;;;;7.00;3.20;;;7.40;87.40;;;;;;5036967;28;20323;-66
2023/01/06 09:30:03;;;;;;;4.28;2.40;;;7.40;85.00;;;;;;5036441;28;20030;-66
2023/01/06 09:32:29;;;;;;;7.30;4.38;;;7.30;83.80;;;;;;5036306;28;20022;-66
2023/01/06 09:34:54;;;;;;;5.63;3.67;;;7.30;83.30;;;;;;5031801;28;20036;-66
2023/01/06 09:37:20;;;;;;;5.85;4.43;;;7.30;81.20;;;;;;5025112;28;20013;-66
2023/01/06 09:39:46;;;;;;;9.55;5.35;;;7.30;80.50;;;;;;5049827;28;20603;-66
2023/01/06 09:42:23;;;;;;;6.20;3.78;;;7.30;79.10;;;;;;5035187;28;20120;-66
2023/01/06 09:44:56;;;;;;;6.03;3.38;;;7.40;79.20;;;;;;5032807;28;20033;-66
2023/01/06 09:47:31;;;;;;;8.45;4.80;;;7.40;78.70;;;;;;5031133;28;20032;-66
2023/01/06 09:49:59;;;;;;;;;;;7.30;76.20;;;;;;5029811;28;20112;-66
2023/01/06 09:52:42;;;;;;;8.38;5.78;;;7.30;74.60;;;;;;5033253;28;19912;-66
2023/01/06 09:55:13;;;;;;;8.35;5.88;;;7.30;74.00;;;;;;5016145;28;20032;-67
2023/01/06 09:57:51;;;;;;;10.48;6.70;;;7.40;72.90;;;;;;5034620;28;20782;-66
2023/01/06 10:00:44;;;;;;;9.65;6.93;;;7.40;72.60;;;;;;5031852;28;20025;-66
2023/01/06 10:03:22;;;;;;;9.77;5.60;;;7.50;72.10;;;;;;5018197;28;20042;-66
2023/01/06 10:06:06;;;;;;;8.70;6.22;;;7.60;72.90;;;;;;5028131;28;20063;-66
2023/01/06 10:08:51;;;;;;;7.22;4.68;;;7.60;72.40;;;;;;5031483;28;20033;-66
2023/01/06 10:11:48;;;;;;;6.32;4.55;;;7.70;71.50;;;;;;5035196;28;20033;-66
2023/01/06 10:14:19;;;;;;;7.18;4.60;;;7.70;73.40;;;;;;5036153;28;20037;-66
2023/01/06 10:17:03;;;;;;;5.32;3.45;;;7.70;73.40;;;;;;5031867;28;20044;-66
2023/01/06 10:19:47;;;;;;;6.28;3.95;;;7.70;74.70;;;;;;5030742;28;20026;-66
2023/01/06 10:22:32;;;;;;;4.50;3.05;;;7.70;74.80;;;;;;5034825;28;20438;-67
2023/01/06 10:25:00;;;;;;;;;;;7.80;73.50;;;;;;5031757;28;20045;-65
2023/01/06 10:27:34;;;;;;;3.67;1.98;;;7.90;74.20;;;;;;5031979;28;20257;-67
2023/01/06 10:30:01;;;;;;;3.92;2.30;;;7.90;77.00;;;;;;5033355;28;20374;-66
2023/01/06 10:32:32;;;;;;;4.38;2.30;;;8.10;75.50;;;;;;5034430;28;20440;-66
2023/01/06 10:34:59;;;;;;;3.83;2.00;;;8.10;79.80;;;;;;5033918;28;20025;-66
2023/01/06 10:37:33;;;;;;;2.83;1.63;;;8.10;79.10;;;;;;5032975;28;20191;-67
2023/01/06 10:40:13;;;;;;;;;;;8.20;79.50;;;;;;5035224;28;20021;-67
2023/01/06 10:42:55;;;;;;;4.35;2.00;;;8.20;82.40;;;;;;5037893;28;20211;-66
2023/01/06 10:45:35;;;;;;;4.25;2.25;;;8.30;84.40;;;;;;5028257;28;20318;-66
2023/01/06 10:48:03;;;;;;;6.90;3.20;;;8.30;84.80;;;;;;5032629;28;20040;-67
2023/01/06 10:50:29;;;;;;;10.00;5.00;;;8.40;83.90;;;;;;5031367;28;20040;-66
2023/01/06 10:52:55;;;;;;;4.75;2.30;;;8.30;87.60;;;;;;5030908;28;20048;-67
2023/01/06 10:55:24;;;;;;;6.57;2.60;;;8.30;88.40;;;;;;5025844;28;20060;-66
2023/01/06 10:57:51;;;;;;;7.85;3.00;;;8.20;89.70;;;;;;5029912;28;20033;-66
2023/01/06 11:00:22;;;;;;;3.47;1.63;;;8.20;88.20;;;;;;5030917;28;20040;-66
2023/01/06 11:02:53;;;;;;;1.90;1.10;;;8.20;88.70;;;;;;5033215;28;20052;-67
2023/01/06 11:05:24;;;;;;;2.75;1.20;;;8.10;89.70;;;;;;5026950;28;20056;-66
2023/01/06 11:08:03;;;;;;;2.78;1.50;;;8.00;88.80;;;;;;5032850;28;20039;-65
2023/01/06 11:10:51;;;;;;;2.33;1.40;;;8.00;88.30;;;;;;5029181;28;20060;-67
2023/01/06 11:13:30;;;;;;;3.65;1.92;;;8.10;88.80;;;;;;5034598;28;20323;-66
2023/01/06 11:15:58;;;;;;;2.28;1.17;;;8.20;87.60;;;;;;5034854;28;20021;-66
2023/01/06 11:18:38;;;;;;;3.30;1.90;;;8.40;92.30;;;;;;5033575;28;20025;-66
2023/01/06 11:21:15;;;;;;;1.80;1.00;;;8.60;93.80;;;;;;5034127;28;20120;-67
2023/01/06 11:23:44;;;;;;;2.03;0.90;;;8.70;97.20;;;;;;5034353;28;20025;-66
2023/01/06 11:26:22;;;;;;;2.03;1.10;;;8.80;97.20;;;;;;5034060;28;20132;-68
2023/01/06 11:28:52;;;;;;;2.45;1.35;;;9.00;98.00;;;;;;5018311;28;20030;-68
2023/01/06 11:31:24;;;;;;;3.08;1.60;;;9.20;98.00;;;;;;5034343;28;20038;-67
2023/01/06 11:33:58;;;;;;;1.63;0.95;;;9.50;98.00;;;;;;5034686;28;20427;-67
2023/01/06 11:36:25;;;;;;;4.50;2.03;;;9.70;98.00;;;;;;5018328;28;20113;-67
2023/01/06 11:38:57;;;;;;;4.40;2.05;;;9.90;98.00;;;;;;5016314;28;20030;-67
2023/01/06 11:41:32;;;;;;;3.50;1.50;;;9.70;98.00;;;;;;5016808;28;20029;-66
2023/01/06 11:44:16;;;;;;;4.10;1.30;;;9.60;98.00;;;;;;5034777;28;20034;-66
2023/01/06 11:46:47;;;;;;;;;;;9.40;98.00;;;;;;5035340;28;20117;-66
2023/01/06 11:49:18;;;;;;;1.85;0.90;;;9.30;98.00;;;;;;5032494;28;19905;-67
2023/01/06 11:51:48;;;;;;;1.88;0.90;;;9.30;98.00;;;;;;5032603;28;20029;-66
2023/01/06 11:54:38;;;;;;;2.15;1.00;;;9.10;98.00;;;;;;5033012;28;20034;-66
2023/01/06 11:57:19;;;;;;;3.58;0.90;;;9.00;97.90;;;;;;5007270;28;20439;-66
2023/01/06 12:00:14;;;;;;;1.85;1.10;;;9.00;97.90;;;;;;5015792;28;20057;-66
2023/01/06 12:03:06;;;;;;;2.15;1.08;;;9.00;98.00;;;;;;5022328;28;20056;-66
2023/01/06 12:05:35;;;;;;;2.38;1.20;;;8.90;97.00;;;;;;5021332;28;20330;-66
2023/01/06 12:08:05;;;;;;;2.63;1.23;;;8.80;96.40;;;;;;5026702;28;20025;-66
2023/01/06 12:10:34;;;;;;;2.60;1.52;;;8.80;96.50;;;;;;5034419;28;20033;-67
2023/01/06 12:12:59;;;;;;;4.30;2.00;;;8.80;95.40;;;;;;5033712;28;20040;-68
2023/01/06 12:15:28;;;;;;;3.90;1.77;;;8.90;95.60;;;;;;5035833;28;20025;-66
2023/01/06 12:18:04;;;;;;;5.00;1.50;;;8.90;96.40;;;;;;5038534;28;20033;-67
2023/01/06 12:20:40;;;;;;;3.50;1.70;;;9.00;97.40;;;;;;5038340;28;20300;-66
2023/01/06 12:23:15;;;;;;;4.35;1.70;;;9.00;96.20;;;;;;5037518;28;20430;-66
2023/01/06 12:25:50;;;;;;;3.22;1.60;;;9.00;96.50;;;;;;5035108;28;20041;-66
2023/01/06 12:28:40;;;;;;;3.67;1.58;;;9.00;96.80;;;;;;5038965;28;20028;-67
2023/01/06 12:31:15;;;;;;;4.38;2.17;;;9.20;96.90;;;;;;5037985;28;20029;-66
2023/01/06 12:34:01;;;;;;;6.80;4.00;;;9.40;97.40;;;;;;5038796;28;20021;-67
2023/01/06 12:37:09;;;;;;;4.32;2.20;;;9.40;98.00;;;;;;5017659;28;20394;-66
2023/01/06 12:39:34;;;;;;;3.55;1.85;;;9.40;98.00;;;;;;5017870;28;20018;-66
2023/01/06 12:42:28;;;;;;;4.47;1.67;;;9.20;98.00;;;;;;5018744;28;20073;-66
2023/01/06 12:45:16;;;;;;;5.47;2.70;;;9.20;97.70;;;;;;5034198;28;20034;-66
2023/01/06 12:47:54;;;;;;;3.58;1.95;;;9.30;97.80;;;;;;5038437;28;20704;-66
2023/01/06 12:50:34;;;;;;;2.75;1.30;;;9.40;98.00;;;;;;5037187;28;20029;-66
2023/01/06 12:53:29;;;;;;;4.88;2.33;;;9.50;98.00;;;;;;5038344;28;20025;-66
2023/01/06 12:56:19;;;;;;;5.65;2.60;;;9.60;98.00;;;;;;5037229;28;20079;-66
2023/01/06 12:58:54;;;;;;;3.45;1.95;;;9.70;98.00;;;;;;5037783;28;20029;-66
2023/01/06 13:01:30;;;;;;;3.88;1.50;;;9.80;98.00;;;;;;5036658;28;20112;-66
2023/01/06 13:04:12;;;;;;;4.13;1.90;;;9.80;98.00;;;;;;5035932;28;20106;-66
2023/01/06 13:06:41;;;;;;;3.45;1.80;;;9.80;98.00;;;;;;5036730;28;20326;-66
2023/01/06 13:09:15;;;;;;;6.38;2.20;;;9.70;98.00;;;;;;5019336;28;20056;-66
2023/01/06 13:12:05;;;;;;;10.48;4.40;;;9.70;98.00;;;;;;5022166;28;20336;-66
2023/01/06 13:14:54;;;;;;;4.75;2.38;;;9.80;98.00;;;;;;5035254;28;20025;-66
2023/01/06 13:18:03;;;;;;;3.20;1.80;;;9.70;98.00;;;;;;5033411;28;20321;-66
2023/01/06 13:21:09;;;;;;;4.13;2.20;;;9.60;98.00;;;;;;5034540;28;20033;-66